Fincastle, Indiana
Current Conditions -  °F | °C
As of 5:15 AM on Sunday 21 Dec 2014 (Local Time) from K4I7 Reporting Station
Haze Haze  
Wind Chill: -6°   Ceiling: Unl
Heat Index: -6°   Visibility: 4mi
Dew Point: -8°   Wind: 3mph
Humidity: 86%   Direction: 100°E
Pressure: 30.27"   Gusts: NA
Location:  39.821°N, 86.7929°W
Report Text: K4I7 211015Z AUTO 10003KT 4SM BR CLR M06/M08 A3027 RMK AO2
Loading
Personal Weather Stations






























Interactive Weather Map New forecast layout! Learn more

10-Day Weather Forecast

Advertisements
Track Severe Weather on mobile